createdAt,value
2022-08-21T00:02:40.223Z,82.34
2022-08-21T00:07:45.455Z,82.41
2022-08-21T00:12:50.521Z,82.03
2022-08-21T00:17:52.525Z,82.98
2022-08-21T00:22:57.574Z,82.94
2022-08-21T00:27:59.714Z,82.49
2022-08-21T00:33:07.090Z,83.16
2022-08-21T00:38:10.964Z,82.06
2022-08-21T00:43:18.243Z,81.77
2022-08-21T00:48:20.184Z,81.15
2022-08-21T00:53:22.579Z,81.78
2022-08-21T00:58:27.681Z,82.30
2022-08-21T01:03:30.430Z,80.98
2022-08-21T01:08:34.249Z,80.77
2022-08-21T01:13:39.316Z,80.39
2022-08-21T01:18:45.905Z,80.35
2022-08-21T01:23:50.638Z,79.31
2022-08-21T01:29:00.877Z,79.32
2022-08-21T01:34:04.898Z,79.42
2022-08-21T01:39:10.157Z,79.85
2022-08-21T01:44:11.950Z,81.39
2022-08-21T01:49:16.214Z,81.77
2022-08-21T01:54:19.379Z,82.35
2022-08-21T01:59:24.843Z,83.01
2022-08-21T02:04:26.628Z,82.44
2022-08-21T02:09:30.863Z,82.14
2022-08-21T02:14:37.912Z,81.01
2022-08-21T02:19:42.003Z,82.56
2022-08-21T02:24:54.801Z,83.90
2022-08-21T02:29:58.676Z,84.34
2022-08-21T02:35:02.716Z,85.65
2022-08-21T02:40:07.421Z,86.18
2022-08-21T02:45:09.651Z,86.89
2022-08-21T02:50:13.805Z,85.83
2022-08-21T02:55:21.853Z,86.07
2022-08-21T03:00:27.029Z,86.15
2022-08-21T03:05:32.247Z,84.92
2022-08-21T03:10:35.671Z,84.08
2022-08-21T03:15:41.026Z,84.82
2022-08-21T03:20:43.357Z,84.39
2022-08-21T03:25:49.258Z,85.46
2022-08-21T03:30:55.093Z,85.22
2022-08-21T03:36:05.670Z,85.12
2022-08-21T03:41:12.160Z,84.70
2022-08-21T03:46:14.797Z,85.47
2022-08-21T03:51:16.654Z,84.99
2022-08-21T03:56:20.859Z,85.10
2022-08-21T04:01:22.643Z,85.80
2022-08-21T04:06:24.607Z,85.36
2022-08-21T04:11:28.273Z,85.60
2022-08-21T04:16:32.298Z,86.34
2022-08-21T04:21:38.128Z,87.46
2022-08-21T04:26:44.920Z,87.25
2022-08-21T04:31:46.632Z,87.29
2022-08-21T04:36:48.410Z,87.58
2022-08-21T04:41:50.336Z,88.22
2022-08-21T04:46:52.632Z,88.67
2022-08-21T04:51:57.260Z,89.13
2022-08-21T04:57:06.326Z,90.02
2022-08-21T05:02:09.747Z,91.49
2022-08-21T05:07:41.659Z,91.29
2022-08-21T05:12:43.936Z,90.66
2022-08-21T05:17:53.736Z,90.24
2022-08-21T05:23:15.228Z,90.28
2022-08-21T05:28:16.987Z,90.14
2022-08-21T05:33:23.576Z,90.22
2022-08-21T05:38:29.417Z,90.14
2022-08-21T05:43:31.495Z,90.69
2022-08-21T05:48:33.633Z,90.38
2022-08-21T05:53:36.318Z,90.50
2022-08-21T05:58:38.410Z,89.79
2022-08-21T06:03:43.746Z,89.65
2022-08-21T06:08:47.979Z,89.84
2022-08-21T06:13:53.299Z,89.12
2022-08-21T06:19:00.727Z,88.36
2022-08-21T06:24:05.809Z,86.88
2022-08-21T06:29:08.565Z,87.11
2022-08-21T06:34:12.589Z,86.69
2022-08-21T06:39:16.604Z,85.51
2022-08-21T06:44:27.656Z,84.60
2022-08-21T06:49:31.654Z,84.42
2022-08-21T06:54:41.342Z,84.27
2022-08-21T06:59:47.940Z,83.28
2022-08-21T07:04:49.753Z,82.43
2022-08-21T07:09:53.949Z,81.56
2022-08-21T07:14:55.909Z,81.63
2022-08-21T07:20:00.215Z,80.90
2022-08-21T07:25:05.268Z,79.95
2022-08-21T07:30:10.274Z,80.14
2022-08-21T07:35:14.541Z,80.10
2022-08-21T07:40:18.112Z,79.74
2022-08-21T07:45:25.320Z,77.61
2022-08-21T07:50:30.490Z,77.36
2022-08-21T07:55:35.831Z,77.50
2022-08-21T08:00:43.417Z,76.83
2022-08-21T08:05:50.365Z,76.46
2022-08-21T08:10:58.299Z,75.78
2022-08-21T08:16:00.074Z,75.19
2022-08-21T08:21:01.850Z,75.47
2022-08-21T08:26:06.940Z,75.61
2022-08-21T08:31:11.830Z,74.70
2022-08-21T08:36:15.879Z,74.18
2022-08-21T08:41:22.660Z,74.33
2022-08-21T08:46:40.621Z,72.75
2022-08-21T08:51:55.819Z,72.11
2022-08-21T08:57:04.478Z,71.58
2022-08-21T09:02:06.749Z,71.20
2022-08-21T09:07:30.174Z,70.31
2022-08-21T09:12:41.015Z,69.96
2022-08-21T09:17:54.709Z,69.01
2022-08-21T09:23:10.895Z,69.25
2022-08-21T09:28:15.090Z,68.72
2022-08-21T09:33:22.413Z,67.50
2022-08-21T09:38:35.793Z,67.70
2022-08-21T09:43:41.032Z,67.93
2022-08-21T09:48:51.409Z,67.60
2022-08-21T09:54:01.558Z,68.25
2022-08-21T09:59:37.252Z,67.75
2022-08-21T10:04:40.253Z,65.23
2022-08-21T10:09:45.583Z,65.67
2022-08-21T10:14:56.791Z,64.20
2022-08-21T10:20:03.220Z,63.72
2022-08-21T10:25:27.634Z,61.92
2022-08-21T10:30:42.427Z,62.32
2022-08-21T10:36:19.253Z,60.94
2022-08-21T10:42:04.081Z,60.55
2022-08-21T10:47:12.020Z,60.25
2022-08-21T10:52:19.721Z,60.55
2022-08-21T10:57:49.093Z,60.09
2022-08-21T11:03:19.056Z,59.30
2022-08-21T11:08:38.268Z,56.47
2022-08-21T11:13:52.340Z,56.06
2022-08-21T11:19:03.726Z,55.17
2022-08-21T11:24:31.523Z,54.20
2022-08-21T11:29:36.858Z,53.07
2022-08-21T11:34:48.199Z,52.13
2022-08-21T11:39:59.575Z,53.38
2022-08-21T11:45:22.858Z,52.16
2022-08-21T11:50:36.096Z,50.99
2022-08-21T11:55:58.062Z,50.53
2022-08-21T12:01:12.620Z,48.94
2022-08-21T12:06:31.823Z,47.92
2022-08-21T12:12:02.556Z,46.56
2022-08-21T12:17:14.668Z,46.84
2022-08-21T12:22:18.459Z,45.98
2022-08-21T12:27:48.766Z,46.41
2022-08-21T12:33:18.657Z,46.32
2022-08-21T12:38:24.995Z,44.95
2022-08-21T12:43:33.082Z,43.04
2022-08-21T12:49:18.091Z,44.42
2022-08-21T12:54:32.022Z,47.13
2022-08-21T12:59:38.420Z,44.96
2022-08-21T13:04:41.401Z,41.84
2022-08-21T13:10:16.487Z,42.61
2022-08-21T13:15:26.558Z,43.71
2022-08-21T13:20:39.986Z,44.02
2022-08-21T13:25:41.929Z,43.64
2022-08-21T13:30:51.409Z,45.36
2022-08-21T13:36:05.753Z,44.22
2022-08-21T13:41:17.003Z,45.22
2022-08-21T13:46:22.974Z,45.75
2022-08-21T13:51:27.265Z,45.98
2022-08-21T13:56:37.349Z,48.64
2022-08-21T14:01:52.363Z,49.79
2022-08-21T14:06:58.989Z,49.04
2022-08-21T14:12:23.182Z,50.81
2022-08-21T14:17:33.948Z,52.26
2022-08-21T14:22:35.824Z,54.54
2022-08-21T14:27:45.673Z,56.41
2022-08-21T14:32:48.529Z,58.95
2022-08-21T14:37:55.040Z,59.25
2022-08-21T14:43:00.313Z,60.05
2022-08-21T14:48:05.460Z,60.66
2022-08-21T14:53:10.880Z,59.82
2022-08-21T14:58:15.719Z,59.36
2022-08-21T15:03:20.000Z,59.40
2022-08-21T15:08:21.871Z,59.78
2022-08-21T15:13:24.103Z,61.53
2022-08-21T15:18:28.165Z,62.93
2022-08-21T15:23:32.721Z,64.78
2022-08-21T15:28:35.506Z,66.21
2022-08-21T15:33:39.997Z,65.89
2022-08-21T15:38:54.193Z,65.91
2022-08-21T15:43:58.574Z,64.45
2022-08-21T15:49:05.146Z,61.44
2022-08-21T15:54:06.991Z,57.96
2022-08-21T15:59:22.823Z,60.71
2022-08-21T16:04:27.131Z,63.32
2022-08-21T16:09:30.890Z,63.84
2022-08-21T16:14:34.151Z,65.10
2022-08-21T16:19:37.308Z,65.92
2022-08-21T16:24:44.385Z,66.17
2022-08-21T16:29:47.030Z,66.35
2022-08-21T16:34:50.075Z,67.01
2022-08-21T16:39:55.115Z,67.98
2022-08-21T16:44:59.614Z,67.09
2022-08-21T16:50:06.532Z,67.19
2022-08-21T16:55:11.056Z,67.41
2022-08-21T17:00:14.660Z,66.14
2022-08-21T17:05:19.136Z,65.88
2022-08-21T17:10:23.440Z,63.85
2022-08-21T17:15:31.429Z,62.47
2022-08-21T17:44:46.270Z,67.53
2022-08-21T17:49:48.279Z,68.55
2022-08-21T17:54:50.895Z,69.04
2022-08-21T17:59:57.698Z,69.73
2022-08-21T18:09:40.987Z,70.80
2022-08-21T18:14:42.919Z,71.33
2022-08-21T18:19:49.003Z,71.80
2022-08-21T18:24:51.227Z,72.34
2022-08-21T18:29:55.337Z,73.29
2022-08-21T18:34:57.558Z,73.55
2022-08-21T18:39:59.703Z,73.89
2022-08-21T18:45:07.621Z,75.20
2022-08-21T18:50:12.473Z,76.18
2022-08-21T18:55:16.722Z,77.45
2022-08-21T19:00:31.906Z,77.46
2022-08-21T19:05:34.857Z,77.80
2022-08-21T19:10:39.389Z,78.36
2022-08-21T19:15:53.004Z,78.73
2022-08-21T19:20:55.020Z,79.07
2022-08-21T19:26:00.878Z,79.05
2022-08-21T19:31:16.429Z,79.01
2022-08-21T19:36:18.656Z,79.37
2022-08-21T19:41:24.213Z,79.49
2022-08-21T19:46:35.089Z,80.39
2022-08-21T19:51:37.032Z,81.92
2022-08-21T19:56:41.968Z,82.69
2022-08-21T20:01:43.968Z,82.94
2022-08-21T20:06:51.227Z,82.59
2022-08-21T20:11:58.313Z,83.90
2022-08-21T20:17:06.097Z,84.27
2022-08-21T20:22:10.634Z,85.14
2022-08-21T20:27:16.484Z,84.47
2022-08-21T20:32:22.633Z,86.09
2022-08-21T20:37:36.331Z,85.19
2022-08-21T20:42:47.246Z,86.00
2022-08-21T20:47:52.736Z,85.63
2022-08-21T20:53:07.386Z,86.39
2022-08-21T20:58:16.058Z,86.80
2022-08-21T21:03:30.335Z,86.13
2022-08-21T21:08:58.565Z,86.32
2022-08-21T21:14:13.704Z,86.34
2022-08-21T21:19:23.379Z,86.60
2022-08-21T21:24:33.454Z,88.17
2022-08-21T21:29:41.659Z,87.77
2022-08-21T21:34:45.441Z,87.39
2022-08-21T21:39:54.487Z,88.82
2022-08-21T21:45:20.633Z,89.58
2022-08-21T21:50:33.758Z,89.49
2022-08-21T21:56:27.500Z,89.34
2022-08-21T22:01:47.069Z,89.79
2022-08-21T22:07:17.627Z,89.41
2022-08-21T22:12:28.764Z,90.54
2022-08-21T22:17:45.102Z,90.67
2022-08-21T22:22:48.415Z,89.88
2022-08-21T22:27:59.663Z,90.32
2022-08-21T22:33:01.494Z,91.07
2022-08-21T22:38:18.459Z,91.25
2022-08-21T22:43:25.173Z,91.27
2022-08-21T22:53:59.187Z,90.78
2022-08-21T22:59:10.326Z,91.64
2022-08-21T23:04:22.121Z,91.31
2022-08-21T23:09:59.822Z,91.56
2022-08-21T23:15:12.559Z,92.22
2022-08-21T23:20:42.387Z,91.53
2022-08-21T23:26:01.885Z,92.69
2022-08-21T23:31:32.641Z,93.24
2022-08-21T23:37:00.109Z,93.08
2022-08-21T23:42:19.893Z,93.24
2022-08-21T23:47:51.029Z,93.62
2022-08-21T23:53:11.937Z,94.06
2022-08-21T23:58:18.474Z,94.81
